createdAt,value
2023-05-11T00:02:19.320Z,15.21
2023-05-11T00:04:48.635Z,15.27
2023-05-11T00:07:16.515Z,15.26
2023-05-11T00:09:44.524Z,15.26
2023-05-11T00:12:13.349Z,15.21
2023-05-11T00:14:41.449Z,15.13
2023-05-11T00:17:09.312Z,15.14
2023-05-11T00:19:37.253Z,15.15
2023-05-11T00:22:06.427Z,15.16
2023-05-11T00:24:34.281Z,15.20
2023-05-11T00:27:02.203Z,15.18
2023-05-11T00:29:30.116Z,15.18
2023-05-11T00:31:58.101Z,15.17
2023-05-11T00:34:25.991Z,15.16
2023-05-11T00:36:53.960Z,15.19
2023-05-11T00:39:23.271Z,15.23
2023-05-11T00:41:51.186Z,15.26
2023-05-11T00:44:19.071Z,15.26
2023-05-11T00:46:46.992Z,15.30
2023-05-11T00:49:17.336Z,15.30
2023-05-11T00:51:45.332Z,15.31
2023-05-11T00:54:15.636Z,15.32
2023-05-11T00:56:45.091Z,15.31
2023-05-11T00:59:14.106Z,15.20
2023-05-11T01:01:42.091Z,15.20
2023-05-11T01:04:10.683Z,15.19
2023-05-11T01:06:46.738Z,15.21
2023-05-11T01:09:25.581Z,15.21
2023-05-11T01:12:01.643Z,15.19
2023-05-11T01:14:40.513Z,15.19
2023-05-11T01:17:13.213Z,15.21
2023-05-11T01:19:44.496Z,15.22
2023-05-11T01:22:27.111Z,15.23
2023-05-11T01:24:59.117Z,15.22
2023-05-11T01:27:58.447Z,15.20
2023-05-11T01:30:30.775Z,15.20
2023-05-11T01:33:04.510Z,15.20
2023-05-11T01:35:34.265Z,15.16
2023-05-11T01:38:05.312Z,15.15
2023-05-11T01:40:37.149Z,15.17
2023-05-11T01:43:09.278Z,15.15
2023-05-11T01:45:44.935Z,15.11
2023-05-11T01:48:15.684Z,15.05
2023-05-11T01:50:44.105Z,15.05
2023-05-11T01:53:13.379Z,15.06
2023-05-11T01:55:42.919Z,15.08
2023-05-11T01:58:12.080Z,15.11
2023-05-11T02:00:42.125Z,15.13
2023-05-11T02:03:11.164Z,15.14
2023-05-11T02:05:40.843Z,15.12
2023-05-11T02:08:09.752Z,15.09
2023-05-11T02:10:39.883Z,15.09
2023-05-11T02:13:09.915Z,15.09
2023-05-11T02:15:41.462Z,15.09
2023-05-11T02:18:15.258Z,15.07
2023-05-11T02:20:46.030Z,14.96
2023-05-11T02:23:14.960Z,14.93
2023-05-11T02:25:44.034Z,14.88
2023-05-11T02:28:11.999Z,14.84
2023-05-11T02:30:45.748Z,14.82
2023-05-11T02:33:21.480Z,14.84
2023-05-11T02:35:52.178Z,14.89
2023-05-11T02:38:21.170Z,14.85
2023-05-11T02:40:52.628Z,14.86
2023-05-11T02:43:34.838Z,14.82
2023-05-11T02:46:07.551Z,14.82
2023-05-11T02:49:02.965Z,14.79
2023-05-11T02:51:35.943Z,14.79
2023-05-11T02:54:07.222Z,14.79
2023-05-11T02:56:35.686Z,14.80
2023-05-11T02:59:04.198Z,14.79
2023-05-11T03:01:32.327Z,14.74
2023-05-11T03:04:04.732Z,14.75
2023-05-11T03:06:33.298Z,14.76
2023-05-11T03:09:02.252Z,14.76
2023-05-11T03:11:30.274Z,14.78
2023-05-11T03:13:58.884Z,14.78
2023-05-11T03:16:27.960Z,14.78
2023-05-11T03:18:56.659Z,14.75
2023-05-11T03:21:28.557Z,14.77
2023-05-11T03:23:58.194Z,14.80
2023-05-11T03:26:30.060Z,14.78
2023-05-11T03:29:00.260Z,14.77
2023-05-11T03:31:28.245Z,14.65
2023-05-11T03:33:56.343Z,14.62
2023-05-11T03:36:27.816Z,14.59
2023-05-11T03:38:57.572Z,14.62
2023-05-11T03:41:29.080Z,14.65
2023-05-11T03:44:00.300Z,14.66
2023-05-11T03:46:29.779Z,14.68
2023-05-11T03:49:02.409Z,14.65
2023-05-11T03:51:31.887Z,14.60
2023-05-11T03:53:59.942Z,14.56
2023-05-11T03:56:28.035Z,14.55
2023-05-11T03:58:56.072Z,14.47
2023-05-11T04:01:24.240Z,14.40
2023-05-11T04:03:53.540Z,14.33
2023-05-11T04:06:21.637Z,14.35
2023-05-11T04:08:51.050Z,14.33
2023-05-11T04:11:18.850Z,14.40
2023-05-11T04:13:47.462Z,14.46
2023-05-11T04:16:15.269Z,14.45
2023-05-11T04:18:43.146Z,14.50
2023-05-11T04:21:11.188Z,14.54
2023-05-11T04:23:39.334Z,14.58
2023-05-11T04:26:08.940Z,14.62
2023-05-11T04:28:36.900Z,14.63
2023-05-11T04:31:04.875Z,14.65
2023-05-11T04:33:32.726Z,14.67
2023-05-11T04:36:00.582Z,14.67
2023-05-11T04:38:28.431Z,14.68
2023-05-11T04:40:56.193Z,14.73
2023-05-11T04:43:25.406Z,14.77
2023-05-11T04:45:53.114Z,14.78
2023-05-11T04:48:21.174Z,14.79
2023-05-11T04:50:48.944Z,14.79
2023-05-11T04:53:16.852Z,14.71
2023-05-11T04:55:44.649Z,14.71
2023-05-11T04:58:12.634Z,14.76
2023-05-11T05:00:41.971Z,14.79
2023-05-11T05:03:09.807Z,14.84
2023-05-11T05:05:37.909Z,14.86
2023-05-11T05:08:05.895Z,14.88
2023-05-11T05:10:33.827Z,14.87
2023-05-11T05:13:01.670Z,14.92
2023-05-11T05:15:29.628Z,14.93
2023-05-11T05:17:58.962Z,14.97
2023-05-11T05:20:27.445Z,14.98
2023-05-11T05:22:55.242Z,14.99
2023-05-11T05:25:23.336Z,15.02
2023-05-11T05:27:51.038Z,15.04
2023-05-11T05:30:19.020Z,15.07
2023-05-11T05:32:46.927Z,15.04
2023-05-11T05:35:16.168Z,15.04
2023-05-11T05:37:43.890Z,15.04
2023-05-11T05:40:12.281Z,15.01
2023-05-11T05:42:40.172Z,15.04
2023-05-11T05:45:09.184Z,15.11
2023-05-11T05:47:37.237Z,15.16
2023-05-11T05:50:05.982Z,15.21
2023-05-11T05:52:35.486Z,15.23
2023-05-11T05:55:03.264Z,15.37
2023-05-11T05:57:31.299Z,15.54
2023-05-11T05:59:59.113Z,15.65
2023-05-11T06:02:26.939Z,15.74
2023-05-11T06:04:54.832Z,15.82
2023-05-11T06:07:22.620Z,15.87
2023-05-11T06:09:51.869Z,15.88
2023-05-11T06:12:19.541Z,15.88
2023-05-11T06:14:47.259Z,15.84
2023-05-11T06:17:14.955Z,15.80
2023-05-11T06:19:42.733Z,15.82
2023-05-11T06:22:10.442Z,15.82
2023-05-11T06:24:38.188Z,15.74
2023-05-11T06:27:07.375Z,15.70
2023-05-11T06:29:35.140Z,15.75
2023-05-11T06:32:02.984Z,15.79
2023-05-11T06:34:30.874Z,15.85
2023-05-11T06:37:00.222Z,15.93
2023-05-11T06:39:27.963Z,16.00
2023-05-11T06:41:57.075Z,16.14
2023-05-11T06:44:27.905Z,16.23
2023-05-11T06:46:55.633Z,16.33
2023-05-11T06:49:23.403Z,16.37
2023-05-11T06:51:51.197Z,16.39
2023-05-11T06:54:19.016Z,16.41
2023-05-11T06:56:46.803Z,16.46
2023-05-11T06:59:14.660Z,16.48
2023-05-11T07:01:44.189Z,16.55
2023-05-11T07:04:11.976Z,16.65
2023-05-11T07:06:39.802Z,16.76
2023-05-11T07:09:08.019Z,16.88
2023-05-11T07:11:38.098Z,16.91
2023-05-11T07:14:05.926Z,16.95
2023-05-11T07:16:37.855Z,17.02
2023-05-11T07:19:08.243Z,17.06
2023-05-11T07:21:36.334Z,17.13
2023-05-11T07:24:04.300Z,17.22
2023-05-11T07:26:32.203Z,17.26
2023-05-11T07:28:59.944Z,17.36
2023-05-11T07:31:29.975Z,17.45
2023-05-11T07:33:57.748Z,17.63
2023-05-11T07:36:26.963Z,17.65
2023-05-11T07:38:54.759Z,17.83
2023-05-11T07:41:26.126Z,17.97
2023-05-11T07:43:53.975Z,18.22
2023-05-11T07:46:21.810Z,18.31
2023-05-11T07:48:51.672Z,18.51
2023-05-11T07:51:26.815Z,18.68
2023-05-11T07:53:54.588Z,18.79
2023-05-11T07:56:22.334Z,18.75
2023-05-11T07:58:50.192Z,18.77
2023-05-11T08:01:17.971Z,18.90
2023-05-11T08:03:45.730Z,18.91
2023-05-11T08:06:13.530Z,18.94
2023-05-11T08:08:42.875Z,19.01
2023-05-11T08:11:10.949Z,19.12
2023-05-11T08:13:38.717Z,19.18
2023-05-11T08:16:07.742Z,18.77
2023-05-11T08:18:35.782Z,18.75
2023-05-11T08:21:03.681Z,18.66
2023-05-11T08:23:31.744Z,18.59
2023-05-11T08:26:01.203Z,18.63
2023-05-11T08:28:28.950Z,18.65
2023-05-11T08:30:57.574Z,18.57
2023-05-11T08:33:37.474Z,18.46
2023-05-11T08:36:07.459Z,18.44
2023-05-11T08:38:36.508Z,18.24
2023-05-11T08:41:07.663Z,18.24
2023-05-11T08:43:36.872Z,18.43
2023-05-11T08:46:07.364Z,18.65
2023-05-11T08:48:35.492Z,18.81
2023-05-11T08:51:04.245Z,18.99
2023-05-11T08:53:32.677Z,19.12
2023-05-11T08:56:02.384Z,19.15
2023-05-11T08:58:33.089Z,19.24
2023-05-11T09:01:00.929Z,19.11
2023-05-11T09:03:31.245Z,19.00
2023-05-11T09:06:01.149Z,19.00
2023-05-11T09:08:32.336Z,18.62
2023-05-11T09:11:00.946Z,18.40
2023-05-11T09:13:28.726Z,18.57
2023-05-11T09:15:57.876Z,18.76
2023-05-11T09:18:25.822Z,18.85
2023-05-11T09:20:53.576Z,18.96
2023-05-11T09:23:25.973Z,18.92
2023-05-11T09:25:53.568Z,18.95
2023-05-11T09:28:26.940Z,19.06
2023-05-11T09:30:55.287Z,19.17
2023-05-11T09:33:26.105Z,19.25
2023-05-11T09:35:54.543Z,19.30
2023-05-11T09:38:23.208Z,19.30
2023-05-11T09:40:53.333Z,19.29
2023-05-11T09:43:22.998Z,19.27
2023-05-11T09:45:52.536Z,19.29
2023-05-11T09:48:30.098Z,19.46
2023-05-11T09:51:03.803Z,19.50
2023-05-11T09:53:43.901Z,19.46
2023-05-11T09:56:12.371Z,19.44
2023-05-11T09:58:48.339Z,19.46
2023-05-11T10:01:16.579Z,19.63
2023-05-11T10:03:50.373Z,19.77
2023-05-11T10:06:20.451Z,19.77
2023-05-11T10:08:49.053Z,19.70
2023-05-11T10:11:16.925Z,19.60
2023-05-11T10:13:45.970Z,19.42
2023-05-11T10:16:17.157Z,19.42
2023-05-11T10:18:45.944Z,19.46
2023-05-11T10:21:16.583Z,19.44
2023-05-11T10:23:44.661Z,19.48
2023-05-11T10:26:13.037Z,19.48
2023-05-11T10:28:41.327Z,19.63
2023-05-11T10:31:11.426Z,19.76
2023-05-11T10:33:40.009Z,19.78
2023-05-11T10:36:10.142Z,19.80
2023-05-11T10:38:39.689Z,19.78
2023-05-11T10:41:21.761Z,19.82
2023-05-11T10:44:12.816Z,19.93
2023-05-11T10:46:55.594Z,20.00
2023-05-11T10:49:39.258Z,20.03
2023-05-11T10:52:22.070Z,19.91
2023-05-11T10:55:06.795Z,19.86
2023-05-11T10:57:44.684Z,19.91
2023-05-11T11:00:52.625Z,20.03
2023-05-11T11:03:20.684Z,19.92
2023-05-11T11:05:48.647Z,19.82
2023-05-11T11:08:16.634Z,19.70
2023-05-11T11:10:46.750Z,19.75
2023-05-11T11:13:16.957Z,19.83
2023-05-11T11:16:14.753Z,19.84
2023-05-11T11:18:44.202Z,19.74
2023-05-11T11:21:15.647Z,19.62
2023-05-11T11:23:45.548Z,19.50
2023-05-11T11:26:16.547Z,19.42
2023-05-11T11:29:09.671Z,19.39
2023-05-11T11:31:38.516Z,19.45
2023-05-11T11:34:37.378Z,19.41
2023-05-11T11:37:06.129Z,19.28
2023-05-11T11:40:13.014Z,19.25
2023-05-11T11:42:44.387Z,19.02
2023-05-11T11:45:33.218Z,18.93
2023-05-11T11:48:09.176Z,19.05
2023-05-11T11:50:37.186Z,19.03
2023-05-11T11:53:05.533Z,19.07
2023-05-11T11:55:47.250Z,19.06
2023-05-11T11:58:59.272Z,19.18
2023-05-11T12:01:28.289Z,19.10
2023-05-11T12:04:24.977Z,19.18
2023-05-11T12:06:58.062Z,19.26
2023-05-11T12:09:26.575Z,19.34
2023-05-11T12:11:54.708Z,19.45
2023-05-11T12:14:24.718Z,19.53
2023-05-11T12:17:13.554Z,19.52
2023-05-11T12:19:43.198Z,19.57
2023-05-11T12:22:13.965Z,19.49
2023-05-11T12:24:42.383Z,19.53
2023-05-11T12:27:10.444Z,19.58
2023-05-11T12:29:40.853Z,19.61
2023-05-11T12:32:13.594Z,19.73
2023-05-11T12:34:41.659Z,19.82
2023-05-11T12:37:09.730Z,19.73
2023-05-11T12:39:37.774Z,19.74
2023-05-11T12:42:06.195Z,19.72
2023-05-11T12:44:36.709Z,19.81
2023-05-11T12:47:14.318Z,19.81
2023-05-11T12:49:43.661Z,19.78
2023-05-11T12:52:12.425Z,19.60
2023-05-11T12:54:41.817Z,19.60
2023-05-11T12:57:24.122Z,19.64
2023-05-11T13:00:08.133Z,19.58
2023-05-11T13:02:44.675Z,19.64
2023-05-11T13:05:14.353Z,19.69
2023-05-11T13:07:44.056Z,19.76
2023-05-11T13:10:13.721Z,19.82
2023-05-11T13:12:51.886Z,19.87
2023-05-11T13:15:21.850Z,19.77
2023-05-11T13:17:58.581Z,19.94
2023-05-11T13:20:27.930Z,20.09
2023-05-11T13:23:05.750Z,20.14
2023-05-11T13:25:34.816Z,20.16
2023-05-11T13:28:03.079Z,20.23
2023-05-11T13:30:32.800Z,20.29
2023-05-11T13:33:04.046Z,20.32
2023-05-11T13:35:32.158Z,20.47
2023-05-11T13:38:00.266Z,20.56
2023-05-11T13:40:28.194Z,20.53
2023-05-11T13:42:56.855Z,20.62
2023-05-11T13:45:24.986Z,20.72
2023-05-11T13:47:53.073Z,20.58
2023-05-11T13:50:22.910Z,20.52
2023-05-11T13:52:52.176Z,20.53
2023-05-11T13:55:20.425Z,20.48
2023-05-11T13:57:48.855Z,20.44
2023-05-11T14:00:17.725Z,20.37
2023-05-11T14:02:54.596Z,20.38
2023-05-11T14:05:23.837Z,20.56
2023-05-11T14:07:51.694Z,20.65
2023-05-11T14:10:21.791Z,20.59
2023-05-11T14:12:49.581Z,20.54
2023-05-11T14:15:20.860Z,20.54
2023-05-11T14:17:49.185Z,20.48
2023-05-11T14:20:17.171Z,20.27
2023-05-11T14:22:46.807Z,20.04
2023-05-11T14:25:14.809Z,19.82
2023-05-11T14:27:44.877Z,19.85
2023-05-11T14:30:13.307Z,19.86
2023-05-11T14:32:41.142Z,19.60
2023-05-11T14:35:09.469Z,19.50
2023-05-11T14:37:37.895Z,19.29
2023-05-11T14:40:08.450Z,19.12
2023-05-11T14:42:36.461Z,19.19
2023-05-11T14:45:04.456Z,19.18
2023-05-11T14:47:32.431Z,19.24
2023-05-11T14:50:00.422Z,19.23
2023-05-11T14:52:30.367Z,19.02
2023-05-11T14:54:58.129Z,19.05
2023-05-11T14:57:27.409Z,18.96
2023-05-11T15:00:00.217Z,19.00
2023-05-11T15:02:28.689Z,19.02
2023-05-11T15:04:56.507Z,18.88
2023-05-11T15:07:24.190Z,18.81
2023-05-11T15:09:52.041Z,18.78
2023-05-11T15:12:19.784Z,18.79
2023-05-11T15:14:49.074Z,18.78
2023-05-11T15:17:16.798Z,18.59
2023-05-11T15:19:44.537Z,18.59
2023-05-11T15:22:17.514Z,18.53
2023-05-11T15:24:45.501Z,18.60
2023-05-11T15:27:13.576Z,18.49
2023-05-11T15:29:41.500Z,18.47
2023-05-11T15:32:14.242Z,18.52
2023-05-11T15:34:55.479Z,18.49
2023-05-11T15:37:26.764Z,18.61
2023-05-11T15:39:54.548Z,18.72
2023-05-11T15:42:22.255Z,18.81
2023-05-11T15:44:49.971Z,18.86
2023-05-11T15:47:19.061Z,18.84
2023-05-11T15:49:46.828Z,18.96
2023-05-11T15:52:14.562Z,19.03
2023-05-11T15:54:42.378Z,19.07
2023-05-11T15:57:10.256Z,19.04
2023-05-11T15:59:38.647Z,19.04
2023-05-11T16:02:06.498Z,19.04
2023-05-11T16:04:35.894Z,19.06
2023-05-11T16:07:04.422Z,19.09
2023-05-11T16:09:32.201Z,19.11
2023-05-11T16:12:00.077Z,19.15
2023-05-11T16:14:27.889Z,19.17
2023-05-11T16:16:59.372Z,19.21
2023-05-11T16:19:27.378Z,19.09
2023-05-11T16:21:56.685Z,19.05
2023-05-11T16:24:24.463Z,19.05
2023-05-11T16:26:52.288Z,19.00
2023-05-11T16:29:20.030Z,18.90
2023-05-11T16:31:48.096Z,18.92
2023-05-11T16:34:15.862Z,18.88
2023-05-11T16:36:43.642Z,18.89
2023-05-11T16:39:13.028Z,18.91
2023-05-11T16:41:40.902Z,18.95
2023-05-11T16:44:08.712Z,18.93
2023-05-11T16:46:36.843Z,18.92
2023-05-11T16:49:04.562Z,18.88
2023-05-11T16:51:33.890Z,18.91
2023-05-11T16:54:01.581Z,18.95
2023-05-11T16:56:30.753Z,18.93
2023-05-11T16:58:58.462Z,18.87
2023-05-11T17:01:26.213Z,18.82
2023-05-11T17:03:54.054Z,18.84
2023-05-11T17:06:23.862Z,18.81
2023-05-11T17:08:53.613Z,18.70
2023-05-11T17:11:21.487Z,18.64
2023-05-11T17:13:57.304Z,18.54
2023-05-11T17:16:25.313Z,18.45
2023-05-11T17:18:59.284Z,18.24
2023-05-11T17:21:27.288Z,18.25
2023-05-11T17:23:58.361Z,18.25
2023-05-11T17:26:32.592Z,18.16
2023-05-11T17:29:13.177Z,18.09
2023-05-11T17:31:42.133Z,18.02
2023-05-11T17:34:10.404Z,18.01
2023-05-11T17:36:38.917Z,17.94
2023-05-11T17:39:06.635Z,17.90
2023-05-11T17:41:34.408Z,17.84
2023-05-11T17:44:02.045Z,17.76
2023-05-11T17:46:37.477Z,17.85
2023-05-11T17:49:06.403Z,17.83
2023-05-11T17:51:34.219Z,17.71
2023-05-11T17:54:01.964Z,17.60
2023-05-11T17:56:29.772Z,17.62
2023-05-11T17:58:57.497Z,17.61
2023-05-11T18:01:27.338Z,17.60
2023-05-11T18:03:58.354Z,17.65
2023-05-11T18:06:27.037Z,17.58
2023-05-11T18:08:54.888Z,17.34
2023-05-11T18:11:22.976Z,17.19
2023-05-11T18:13:50.952Z,17.21
2023-05-11T18:16:18.838Z,17.26
2023-05-11T18:18:46.678Z,17.34
2023-05-11T18:21:19.113Z,17.35
2023-05-11T18:23:46.884Z,17.29
2023-05-11T18:26:14.764Z,17.24
2023-05-11T18:28:42.612Z,17.30
2023-05-11T18:31:10.346Z,17.29
2023-05-11T18:33:38.251Z,17.24
2023-05-11T18:36:06.591Z,17.19
2023-05-11T18:38:35.840Z,17.16
2023-05-11T18:41:05.659Z,17.23
2023-05-11T18:43:34.285Z,17.14
2023-05-11T18:46:02.072Z,17.08
2023-05-11T18:48:29.770Z,17.11
2023-05-11T18:50:57.820Z,17.14
2023-05-11T18:53:25.611Z,17.16
2023-05-11T18:55:54.859Z,17.15
2023-05-11T18:58:23.556Z,17.14
2023-05-11T19:00:52.342Z,17.15
2023-05-11T19:03:22.133Z,17.14
2023-05-11T19:05:50.605Z,17.12
2023-05-11T19:08:18.593Z,17.05
2023-05-11T19:10:47.956Z,17.02
2023-05-11T19:13:17.144Z,16.99
2023-05-11T19:15:45.010Z,16.94
2023-05-11T19:18:12.853Z,16.94
2023-05-11T19:20:40.727Z,16.95
2023-05-11T19:23:08.487Z,16.97
2023-05-11T19:25:36.683Z,16.97
2023-05-11T19:28:04.540Z,16.94
2023-05-11T19:30:33.783Z,16.88
2023-05-11T19:33:01.669Z,16.90
2023-05-11T19:35:29.983Z,16.91
2023-05-11T19:37:57.864Z,16.90
2023-05-11T19:40:45.178Z,16.86
2023-05-11T19:43:13.990Z,16.80
2023-05-11T19:45:44.124Z,16.78
2023-05-11T19:48:12.065Z,16.71
2023-05-11T19:50:39.862Z,16.71
2023-05-11T19:53:07.801Z,16.72
2023-05-11T19:55:38.100Z,16.76
2023-05-11T19:58:06.901Z,16.73
2023-05-11T20:00:34.889Z,16.68
2023-05-11T20:03:04.675Z,16.62
2023-05-11T20:05:32.642Z,16.50
2023-05-11T20:08:01.289Z,16.51
2023-05-11T20:10:29.257Z,16.35
2023-05-11T20:12:58.137Z,16.39
2023-05-11T20:15:26.360Z,16.39
2023-05-11T20:17:54.280Z,16.31
2023-05-11T20:20:23.968Z,16.25
2023-05-11T20:22:52.059Z,16.25
2023-05-11T20:25:20.030Z,16.31
2023-05-11T20:27:47.942Z,16.34
2023-05-11T20:30:16.527Z,16.29
2023-05-11T20:35:15.611Z,16.36
2023-05-11T20:37:44.911Z,16.26
2023-05-11T20:40:13.987Z,16.24
2023-05-11T20:42:41.918Z,16.20
2023-05-11T20:45:10.727Z,16.21
2023-05-11T20:47:38.817Z,16.21
2023-05-11T20:50:08.483Z,16.20
2023-05-11T20:52:36.749Z,16.20
2023-05-11T20:55:07.186Z,16.17
2023-05-11T20:57:35.291Z,16.12
2023-05-11T21:00:05.527Z,16.03
2023-05-11T21:02:33.455Z,16.02
2023-05-11T21:05:02.730Z,16.02
2023-05-11T21:07:30.948Z,16.07
2023-05-11T21:09:58.859Z,16.09
2023-05-11T21:12:28.372Z,16.16
2023-05-11T21:14:57.162Z,16.18
2023-05-11T21:17:40.810Z,16.14
2023-05-11T21:20:50.239Z,16.11
2023-05-11T21:23:48.897Z,15.98
2023-05-11T21:26:38.802Z,16.01
2023-05-11T21:29:21.096Z,16.06
2023-05-11T21:32:02.257Z,16.09
2023-05-11T21:34:58.190Z,16.08
2023-05-11T21:37:36.678Z,16.04
2023-05-11T21:40:17.641Z,15.94
2023-05-11T21:42:46.406Z,15.89
2023-05-11T21:45:34.538Z,15.93
2023-05-11T21:48:02.597Z,15.88
2023-05-11T21:50:30.769Z,15.79
2023-05-11T21:52:59.210Z,15.82
2023-05-11T21:55:27.287Z,15.81
2023-05-11T21:57:55.735Z,15.83
2023-05-11T22:00:24.344Z,15.82
2023-05-11T22:02:54.129Z,15.74
2023-05-11T22:05:22.639Z,15.72
2023-05-11T22:07:53.931Z,15.74
2023-05-11T22:10:24.578Z,15.82
2023-05-11T22:12:53.145Z,15.71
2023-05-11T22:15:22.687Z,15.71
2023-05-11T22:17:50.955Z,15.65
2023-05-11T22:20:20.918Z,15.74
2023-05-11T22:22:49.050Z,15.73
2023-05-11T22:25:17.230Z,15.76
2023-05-11T22:27:45.422Z,15.51
2023-05-11T22:30:14.016Z,15.52
2023-05-11T22:32:42.188Z,15.50
2023-05-11T22:35:11.016Z,15.35
2023-05-11T22:37:40.855Z,15.45
2023-05-11T22:40:10.082Z,15.49
2023-05-11T22:42:38.398Z,15.51
2023-05-11T22:45:07.664Z,15.48
2023-05-11T22:47:35.848Z,15.49
2023-05-11T22:50:04.403Z,15.51
2023-05-11T22:52:32.468Z,15.56
2023-05-11T22:55:01.891Z,15.49
2023-05-11T22:57:29.994Z,15.44
2023-05-11T22:59:58.458Z,15.39
2023-05-11T23:02:26.504Z,15.43
2023-05-11T23:04:54.600Z,15.45
2023-05-11T23:07:22.746Z,15.36
2023-05-11T23:09:52.590Z,15.38
2023-05-11T23:12:22.806Z,15.32
2023-05-11T23:14:51.185Z,15.28
2023-05-11T23:17:19.686Z,15.31
2023-05-11T23:19:48.151Z,15.33
2023-05-11T23:22:16.616Z,15.27
2023-05-11T23:24:44.823Z,15.30
2023-05-11T23:27:13.173Z,15.20
2023-05-11T23:29:42.850Z,15.20
2023-05-11T23:32:10.899Z,15.24
2023-05-11T23:34:39.158Z,15.25
2023-05-11T23:37:07.460Z,15.23
2023-05-11T23:39:35.474Z,15.05
2023-05-11T23:42:04.318Z,15.05
2023-05-11T23:44:32.274Z,15.08
2023-05-11T23:47:01.851Z,15.08
2023-05-11T23:49:30.372Z,15.04
2023-05-11T23:51:58.712Z,15.01
2023-05-11T23:54:26.691Z,15.01
2023-05-11T23:56:54.643Z,14.98
2023-05-11T23:59:22.530Z,15.01
